createdAt,value
2023-04-17T00:01:04.973Z,8.02
2023-04-17T00:03:36.010Z,6.38
2023-04-17T00:06:07.313Z,7.40
2023-04-17T00:08:38.197Z,7.38
2023-04-17T00:11:11.701Z,7.80
2023-04-17T00:13:44.280Z,5.93
2023-04-17T00:16:15.076Z,10.50
2023-04-17T00:18:45.885Z,8.85
2023-04-17T00:21:16.754Z,7.25
2023-04-17T00:23:47.809Z,6.88
2023-04-17T00:26:21.406Z,8.30
2023-04-17T00:28:52.995Z,6.13
2023-04-17T00:31:24.115Z,7.85
2023-04-17T00:33:55.211Z,7.07
2023-04-17T00:36:27.591Z,7.25
2023-04-17T00:38:58.389Z,9.18
2023-04-17T00:41:32.208Z,8.43
2023-04-17T00:44:03.037Z,6.47
2023-04-17T00:46:34.446Z,7.70
2023-04-17T00:49:05.557Z,7.00
2023-04-17T00:51:36.746Z,7.65
2023-04-17T00:54:08.863Z,7.97
2023-04-17T00:56:42.680Z,6.15
2023-04-17T00:59:16.209Z,7.70
2023-04-17T01:01:47.291Z,8.85
2023-04-17T01:04:18.331Z,9.73
2023-04-17T01:06:49.414Z,7.45
2023-04-17T01:09:20.851Z,8.88
2023-04-17T01:11:54.249Z,11.15
2023-04-17T01:14:25.099Z,8.20
2023-04-17T01:16:56.013Z,7.68
2023-04-17T01:19:27.489Z,9.18
2023-04-17T01:21:58.265Z,7.78
2023-04-17T01:24:31.676Z,10.15
2023-04-17T01:27:02.569Z,6.20
2023-04-17T01:29:34.555Z,9.10
2023-04-17T01:32:05.670Z,7.30
2023-04-17T01:34:37.610Z,6.55
2023-04-17T01:37:08.726Z,7.72
2023-04-17T01:39:42.189Z,9.20
2023-04-17T01:42:13.156Z,5.85
2023-04-17T01:44:44.155Z,6.25
2023-04-17T01:47:15.036Z,8.38
2023-04-17T01:49:45.893Z,9.85
2023-04-17T01:52:17.269Z,7.38
2023-04-17T01:54:50.957Z,5.90
2023-04-17T01:57:22.148Z,6.32
2023-04-17T01:59:53.013Z,6.43
2023-04-17T02:02:23.944Z,7.53
2023-04-17T02:04:54.837Z,5.30
2023-04-17T02:07:25.817Z,9.68
2023-04-17T02:09:59.301Z,6.38
2023-04-17T02:12:31.554Z,6.68
2023-04-17T02:15:02.435Z,8.40
2023-04-17T02:17:34.275Z,5.88
2023-04-17T02:20:07.190Z,7.35
2023-04-17T02:22:38.151Z,7.57
2023-04-17T02:25:12.259Z,8.55
2023-04-17T02:27:42.993Z,6.30
2023-04-17T02:30:15.082Z,6.53
2023-04-17T02:32:46.324Z,7.22
2023-04-17T02:35:17.213Z,5.75
2023-04-17T02:37:48.219Z,6.32
2023-04-17T02:40:21.963Z,7.40
2023-04-17T02:42:56.342Z,6.78
2023-04-17T02:45:27.296Z,6.75
2023-04-17T02:47:58.212Z,5.68
2023-04-17T02:50:29.226Z,5.70
2023-04-17T02:53:26.430Z,5.38
2023-04-17T02:55:59.773Z,6.03
2023-04-17T02:58:31.318Z,8.40
2023-04-17T03:01:06.639Z,6.90
2023-04-17T03:03:43.070Z,6.75
2023-04-17T03:06:16.914Z,6.10
2023-04-17T03:08:47.814Z,6.95
2023-04-17T03:11:22.085Z,10.32
2023-04-17T03:13:53.042Z,8.70
2023-04-17T03:16:26.052Z,6.35
2023-04-17T03:18:59.303Z,9.75
2023-04-17T03:21:30.240Z,5.85
2023-04-17T03:24:01.894Z,6.95
2023-04-17T03:26:35.356Z,6.32
2023-04-17T03:29:11.080Z,6.50
2023-04-17T03:31:42.085Z,6.47
2023-04-17T03:34:13.608Z,6.30
2023-04-17T03:36:44.929Z,6.20
2023-04-17T03:39:16.603Z,6.40
2023-04-17T03:41:50.072Z,8.40
2023-04-17T03:44:21.607Z,9.18
2023-04-17T03:46:52.357Z,6.90
2023-04-17T03:49:23.558Z,10.60
2023-04-17T03:51:54.456Z,8.10
2023-04-17T03:54:26.723Z,8.93
2023-04-17T03:57:02.840Z,8.68
2023-04-17T03:59:34.805Z,8.52
2023-04-17T04:02:05.979Z,7.53
2023-04-17T04:04:39.041Z,7.60
2023-04-17T04:07:14.927Z,7.80
2023-04-17T04:09:45.768Z,8.60
2023-04-17T04:12:19.808Z,7.38
2023-04-17T04:14:50.691Z,5.47
2023-04-17T04:17:22.181Z,6.75
2023-04-17T04:19:53.218Z,6.65
2023-04-17T04:22:24.518Z,8.25
2023-04-17T04:24:57.914Z,7.03
2023-04-17T04:27:45.880Z,8.05
2023-04-17T04:30:17.744Z,11.98
2023-04-17T04:32:51.757Z,6.00
2023-04-17T04:35:22.886Z,6.07
2023-04-17T04:37:55.147Z,6.78
2023-04-17T04:40:27.160Z,7.45
2023-04-17T04:43:00.693Z,8.73
2023-04-17T04:45:38.944Z,8.77
2023-04-17T04:48:09.858Z,5.68
2023-04-17T04:50:43.541Z,6.85
2023-04-17T04:53:14.545Z,10.00
2023-04-17T04:55:51.374Z,7.88
2023-04-17T04:58:24.929Z,7.50
2023-04-17T05:00:56.477Z,6.18
2023-04-17T05:03:34.302Z,6.38
2023-04-17T05:06:06.749Z,6.75
2023-04-17T05:08:51.567Z,7.93
2023-04-17T05:11:22.160Z,6.97
2023-04-17T05:13:56.075Z,8.40
2023-04-17T05:16:31.163Z,6.50
2023-04-17T05:19:02.737Z,6.50
2023-04-17T05:21:54.653Z,8.60
2023-04-17T05:24:26.280Z,5.80
2023-04-17T05:26:57.271Z,9.55
2023-04-17T05:29:30.607Z,10.55
2023-04-17T05:32:02.165Z,9.93
2023-04-17T05:34:51.692Z,8.18
2023-04-17T05:37:26.900Z,6.13
2023-04-17T05:40:00.682Z,6.65
2023-04-17T05:42:32.501Z,5.28
2023-04-17T05:45:05.965Z,8.68
2023-04-17T05:47:36.984Z,5.78
2023-04-17T05:50:08.351Z,8.68
2023-04-17T05:52:39.817Z,8.73
2023-04-17T05:55:13.239Z,5.05
2023-04-17T05:57:43.873Z,5.82
2023-04-17T06:00:18.927Z,10.85
2023-04-17T06:02:55.613Z,7.75
2023-04-17T06:05:35.106Z,9.65
2023-04-17T06:08:05.628Z,12.15
2023-04-17T06:10:36.280Z,10.90
2023-04-17T06:13:06.756Z,6.68
2023-04-17T06:15:39.686Z,6.15
2023-04-17T06:18:10.203Z,6.13
2023-04-17T06:20:40.530Z,6.03
2023-04-17T06:23:10.864Z,6.15
2023-04-17T06:25:41.326Z,11.80
2023-04-17T06:28:11.765Z,8.77
2023-04-17T06:30:44.783Z,9.65
2023-04-17T06:33:15.128Z,7.40
2023-04-17T06:35:46.592Z,8.88
2023-04-17T06:38:25.793Z,7.85
2023-04-17T06:40:56.869Z,14.57
2023-04-17T06:43:27.309Z,9.55
2023-04-17T06:46:00.264Z,10.80
2023-04-17T06:48:30.635Z,10.38
2023-04-17T06:51:01.101Z,9.45
2023-04-17T06:53:31.437Z,10.27
2023-04-17T06:56:01.937Z,11.60
2023-04-17T06:58:32.267Z,12.50
2023-04-17T07:01:05.366Z,11.95
2023-04-17T07:03:35.965Z,13.13
2023-04-17T07:06:06.627Z,9.20
2023-04-17T07:08:37.102Z,12.48
2023-04-17T07:11:07.776Z,13.02
2023-04-17T07:13:38.097Z,13.73
2023-04-17T07:16:11.461Z,11.30
2023-04-17T07:18:41.847Z,10.43
2023-04-17T07:21:12.152Z,11.00
2023-04-17T07:23:42.568Z,11.35
2023-04-17T07:26:14.354Z,13.07
2023-04-17T07:28:44.758Z,11.45
2023-04-17T07:31:17.806Z,11.77
2023-04-17T07:33:48.253Z,12.82
2023-04-17T07:36:19.243Z,15.35
2023-04-17T07:38:49.629Z,14.52
2023-04-17T07:41:19.958Z,9.82
2023-04-17T07:43:50.276Z,13.88
2023-04-17T07:46:23.371Z,10.13
2023-04-17T07:48:53.753Z,10.95
2023-04-17T07:51:24.074Z,11.57
2023-04-17T07:53:54.462Z,10.25
2023-04-17T07:56:25.829Z,10.98
2023-04-17T07:58:56.682Z,13.07
2023-04-17T08:01:29.753Z,12.38
2023-04-17T08:04:00.442Z,13.15
2023-04-17T08:06:30.967Z,8.65
2023-04-17T08:09:02.365Z,11.88
2023-04-17T08:11:40.031Z,13.63
2023-04-17T08:14:17.614Z,9.50
2023-04-17T08:16:50.819Z,14.57
2023-04-17T08:19:21.231Z,11.45
2023-04-17T08:21:52.930Z,7.35
2023-04-17T08:24:23.281Z,8.63
2023-04-17T08:26:53.656Z,11.05
2023-04-17T08:29:23.943Z,10.80
2023-04-17T08:32:10.907Z,9.52
2023-04-17T08:34:44.163Z,12.20
2023-04-17T08:37:14.690Z,6.65
2023-04-17T08:39:45.237Z,8.15
2023-04-17T08:42:18.905Z,8.52
2023-04-17T08:44:50.136Z,10.55
2023-04-17T08:47:23.627Z,8.98
2023-04-17T08:49:56.228Z,12.23
2023-04-17T08:52:27.302Z,7.45
2023-04-17T08:54:57.638Z,8.55
2023-04-17T08:57:28.169Z,9.57
2023-04-17T08:59:58.574Z,6.28
2023-04-17T09:02:31.636Z,6.72
2023-04-17T09:05:02.300Z,10.90
2023-04-17T09:07:33.649Z,12.85
2023-04-17T09:10:04.147Z,13.07
2023-04-17T09:12:41.897Z,9.57
2023-04-17T09:15:21.671Z,11.45
2023-04-17T09:17:56.851Z,10.43
2023-04-17T09:20:27.796Z,15.30
2023-04-17T09:23:05.781Z,12.55
2023-04-17T09:25:36.135Z,15.32
2023-04-17T09:28:14.897Z,11.13
2023-04-17T09:30:45.979Z,10.00
2023-04-17T09:33:18.876Z,11.68
2023-04-17T09:35:49.163Z,12.23
2023-04-17T09:38:19.756Z,7.97
2023-04-17T09:40:50.300Z,8.57
2023-04-17T09:43:21.686Z,7.75
2023-04-17T09:45:52.518Z,8.25
2023-04-17T09:48:26.670Z,8.38
2023-04-17T09:50:58.866Z,8.93
2023-04-17T09:53:29.478Z,8.82
2023-04-17T09:56:05.764Z,7.95
2023-04-17T09:58:36.180Z,9.18
2023-04-17T10:01:09.364Z,5.30
2023-04-17T10:03:43.161Z,6.15
2023-04-17T10:06:15.142Z,10.05
2023-04-17T10:08:45.857Z,7.70
2023-04-17T10:11:17.188Z,8.70
2023-04-17T10:13:52.632Z,5.88
2023-04-17T10:16:23.316Z,6.15
2023-04-17T10:19:29.758Z,7.15
2023-04-17T10:22:35.023Z,5.90
2023-04-17T10:25:22.483Z,7.63
2023-04-17T10:30:26.802Z,9.43
2023-04-17T10:33:25.017Z,10.10
2023-04-17T10:35:58.183Z,10.82
2023-04-17T10:38:39.072Z,5.60
2023-04-17T10:41:12.186Z,9.77
2023-04-17T10:43:47.693Z,7.80
2023-04-17T10:46:18.212Z,6.22
2023-04-17T10:48:53.473Z,7.65
2023-04-17T10:51:45.771Z,6.72
2023-04-17T10:54:16.523Z,6.93
2023-04-17T10:56:49.500Z,6.57
2023-04-17T10:59:21.353Z,6.43
2023-04-17T11:02:07.940Z,7.80
2023-04-17T11:04:38.760Z,6.57
2023-04-17T11:07:11.740Z,9.50
2023-04-17T11:09:42.831Z,7.28
2023-04-17T11:12:15.766Z,9.95
2023-04-17T11:14:46.597Z,9.95
2023-04-17T11:17:17.221Z,7.82
2023-04-17T11:19:48.259Z,7.93
2023-04-17T11:22:21.506Z,5.07
2023-04-17T11:24:54.274Z,5.93
2023-04-17T11:27:25.821Z,6.95
2023-04-17T11:29:56.277Z,8.38
2023-04-17T11:32:26.751Z,5.65
2023-04-17T11:34:57.540Z,4.82
2023-04-17T11:37:30.526Z,6.20
2023-04-17T11:40:10.321Z,9.65
2023-04-17T11:42:47.778Z,7.85
2023-04-17T11:45:18.262Z,9.00
2023-04-17T11:47:50.432Z,6.70
2023-04-17T11:50:22.228Z,9.98
2023-04-17T11:52:55.169Z,7.30
2023-04-17T11:55:30.443Z,5.63
2023-04-17T11:58:01.566Z,8.75
2023-04-17T12:00:32.873Z,6.28
2023-04-17T12:03:05.137Z,7.93
2023-04-17T12:05:35.779Z,7.88
2023-04-17T12:08:10.262Z,9.13
2023-04-17T12:10:44.950Z,7.15
2023-04-17T12:13:15.601Z,6.18
2023-04-17T12:15:46.252Z,7.30
2023-04-17T12:18:17.092Z,7.55
2023-04-17T12:20:47.719Z,4.20
2023-04-17T12:23:20.614Z,6.68
2023-04-17T12:25:50.873Z,8.40
2023-04-17T12:28:22.265Z,5.78
2023-04-17T12:30:52.671Z,7.70
2023-04-17T12:33:23.004Z,5.90
2023-04-17T12:35:53.629Z,6.40
2023-04-17T12:38:26.734Z,5.05
2023-04-17T12:40:57.062Z,12.65
2023-04-17T12:43:27.690Z,5.20
2023-04-17T12:45:58.545Z,8.80
2023-04-17T12:48:30.772Z,3.92
2023-04-17T12:51:02.659Z,7.20
2023-04-17T12:53:35.673Z,6.45
2023-04-17T12:56:06.152Z,7.32
2023-04-17T12:58:36.492Z,5.20
2023-04-17T13:01:06.997Z,4.85
2023-04-17T13:03:38.606Z,10.10
2023-04-17T13:06:09.595Z,6.78
2023-04-17T13:08:42.685Z,14.27
2023-04-17T13:11:13.385Z,5.50
2023-04-17T13:13:43.757Z,4.70
2023-04-17T13:16:14.273Z,6.70
2023-04-17T13:18:44.697Z,9.13
2023-04-17T13:21:15.158Z,6.93
2023-04-17T13:23:48.082Z,5.28
2023-04-17T13:26:18.466Z,5.35
2023-04-17T13:28:49.108Z,6.72
2023-04-17T13:31:19.494Z,8.15
2023-04-17T13:33:49.987Z,7.63
2023-04-17T13:36:20.437Z,9.20
2023-04-17T13:38:53.438Z,6.13
2023-04-17T13:41:24.242Z,5.10
2023-04-17T13:43:55.492Z,6.72
2023-04-17T13:46:26.078Z,7.88
2023-04-17T13:48:56.518Z,4.50
2023-04-17T13:51:27.090Z,7.55
2023-04-17T13:54:01.549Z,5.72
2023-04-17T13:56:32.430Z,8.23
2023-04-17T13:59:02.753Z,6.82
2023-04-17T14:01:33.148Z,4.80
2023-04-17T14:04:03.804Z,5.07
2023-04-17T14:06:35.681Z,5.53
2023-04-17T14:09:08.776Z,4.88
2023-04-17T14:11:39.448Z,5.60
2023-04-17T14:14:10.159Z,7.40
2023-04-17T14:16:40.565Z,5.75
2023-04-17T14:19:14.437Z,7.40
2023-04-17T14:21:45.580Z,4.15
2023-04-17T14:24:18.646Z,3.83
2023-04-17T14:26:49.036Z,6.95
2023-04-17T14:29:20.702Z,6.32
2023-04-17T14:31:51.037Z,7.95
2023-04-17T14:34:21.481Z,6.07
2023-04-17T14:36:51.905Z,4.80
2023-04-17T14:39:24.916Z,4.13
2023-04-17T14:41:55.353Z,6.85
2023-04-17T14:44:25.878Z,6.25
2023-04-17T14:46:57.148Z,5.95
2023-04-17T14:49:27.584Z,3.95
2023-04-17T14:51:58.299Z,7.55
2023-04-17T14:54:31.289Z,4.63
2023-04-17T14:57:01.874Z,3.85
2023-04-17T14:59:32.500Z,4.07
2023-04-17T15:02:02.973Z,6.18
2023-04-17T15:04:33.337Z,4.43
2023-04-17T15:07:04.996Z,3.78
2023-04-17T15:09:37.969Z,6.85
2023-04-17T15:12:09.029Z,6.25
2023-04-17T15:14:39.565Z,5.57
2023-04-17T15:17:09.860Z,6.30
2023-04-17T15:19:40.198Z,4.35
2023-04-17T15:22:10.547Z,5.93
2023-04-17T15:24:43.515Z,4.18
2023-04-17T15:27:14.415Z,5.75
2023-04-17T15:29:47.065Z,4.97
2023-04-17T15:32:17.415Z,4.57
2023-04-17T15:34:48.653Z,5.07
2023-04-17T15:37:19.406Z,5.38
2023-04-17T15:39:52.398Z,3.83
2023-04-17T15:42:22.839Z,9.00
2023-04-17T15:44:55.611Z,5.40
2023-04-17T15:47:26.078Z,7.60
2023-04-17T15:49:56.406Z,4.88
2023-04-17T15:52:26.721Z,6.00
2023-04-17T15:54:59.594Z,5.22
2023-04-17T15:57:30.027Z,6.28
2023-04-17T16:00:00.436Z,6.60
2023-04-17T16:02:31.524Z,5.53
2023-04-17T16:05:02.272Z,6.90
2023-04-17T16:07:32.637Z,6.05
2023-04-17T16:10:05.557Z,8.95
2023-04-17T16:12:35.910Z,4.32
2023-04-17T16:15:06.498Z,6.20
2023-04-17T16:17:36.925Z,6.82
2023-04-17T16:20:08.863Z,7.95
2023-04-17T16:22:39.230Z,7.88
2023-04-17T16:25:13.426Z,11.30
2023-04-17T16:27:44.083Z,6.55
2023-04-17T16:30:15.163Z,11.60
2023-04-17T16:32:48.811Z,9.35
2023-04-17T16:35:19.186Z,9.38
2023-04-17T16:37:49.595Z,9.73
2023-04-17T16:40:22.815Z,7.20
2023-04-17T16:42:53.270Z,8.82
2023-04-17T16:45:24.107Z,8.27
2023-04-17T16:47:54.549Z,4.93
2023-04-17T16:50:25.779Z,5.78
2023-04-17T16:52:56.156Z,5.70
2023-04-17T16:55:29.383Z,4.57
2023-04-17T16:58:00.400Z,5.97
2023-04-17T17:00:30.698Z,5.47
2023-04-17T17:03:01.398Z,8.73
2023-04-17T17:05:31.881Z,4.55
2023-04-17T17:08:02.232Z,6.00
2023-04-17T17:10:35.399Z,5.53
2023-04-17T17:13:08.881Z,7.32
2023-04-17T17:15:39.305Z,3.53
2023-04-17T17:18:10.147Z,6.43
2023-04-17T17:20:40.545Z,5.65
2023-04-17T17:23:11.102Z,4.30
2023-04-17T17:25:44.466Z,5.90
2023-04-17T17:28:14.881Z,6.30
2023-04-17T17:30:45.184Z,7.85
2023-04-17T17:33:17.154Z,6.07
2023-04-17T17:35:47.543Z,6.00
2023-04-17T17:38:18.061Z,5.95
2023-04-17T17:40:51.160Z,5.05
2023-04-17T17:43:21.462Z,7.38
2023-04-17T17:45:52.291Z,7.47
2023-04-17T17:48:22.785Z,6.95
2023-04-17T17:50:57.350Z,6.55
2023-04-17T17:53:27.761Z,6.60
2023-04-17T17:56:00.765Z,6.97
2023-04-17T17:58:31.258Z,7.20
2023-04-17T18:01:01.678Z,6.32
2023-04-17T18:03:33.071Z,8.30
2023-04-17T18:06:03.626Z,8.50
2023-04-17T18:08:33.926Z,6.93
2023-04-17T18:11:07.016Z,7.20
2023-04-17T18:13:37.292Z,6.47
2023-04-17T18:16:08.232Z,5.88
2023-04-17T18:18:39.078Z,5.93
2023-04-17T18:21:09.897Z,5.80
2023-04-17T18:23:40.291Z,9.00
2023-04-17T18:26:13.315Z,5.13
2023-04-17T18:28:43.701Z,7.07
2023-04-17T18:31:14.628Z,6.00
2023-04-17T18:33:45.249Z,8.30
2023-04-17T18:36:15.570Z,4.95
2023-04-17T18:38:45.942Z,4.03
2023-04-17T18:41:19.189Z,10.13
2023-04-17T18:43:49.495Z,3.90
2023-04-17T18:46:20.047Z,5.45
2023-04-17T18:48:50.475Z,5.97
2023-04-17T18:51:20.933Z,5.20
2023-04-17T18:53:51.476Z,8.15
2023-04-17T18:56:24.499Z,6.90
2023-04-17T18:58:54.803Z,5.97
2023-04-17T19:01:25.147Z,3.20
2023-04-17T19:03:55.721Z,5.03
2023-04-17T19:06:26.635Z,4.47
2023-04-17T19:08:57.392Z,4.65
2023-04-17T19:11:31.203Z,5.22
2023-04-17T19:14:04.724Z,6.53
2023-04-17T19:16:35.185Z,3.92
2023-04-17T19:19:05.938Z,3.95
2023-04-17T19:21:37.255Z,5.03
2023-04-17T19:24:08.916Z,2.97
2023-04-17T19:26:42.324Z,5.07
2023-04-17T19:29:14.289Z,5.13
2023-04-17T19:31:46.274Z,4.93
2023-04-17T19:34:17.483Z,5.50
2023-04-17T19:36:48.420Z,3.08
2023-04-17T19:39:19.471Z,3.28
2023-04-17T19:41:53.571Z,3.97
2023-04-17T19:44:25.992Z,4.22
2023-04-17T19:46:59.649Z,3.05
2023-04-17T19:49:31.566Z,5.07
2023-04-17T19:52:02.463Z,4.32
2023-04-17T19:54:33.298Z,4.68
2023-04-17T19:57:06.957Z,5.70
2023-04-17T19:59:37.935Z,3.40
2023-04-17T20:02:09.692Z,2.85
2023-04-17T20:04:40.679Z,6.18
2023-04-17T20:07:11.683Z,5.57
2023-04-17T20:09:42.656Z,4.32
2023-04-17T20:12:16.172Z,5.72
2023-04-17T20:14:47.108Z,4.40
2023-04-17T20:17:18.059Z,6.43
2023-04-17T20:19:49.184Z,5.93
2023-04-17T20:22:20.084Z,4.30
2023-04-17T20:24:51.628Z,6.45
2023-04-17T20:27:25.217Z,5.75
2023-04-17T20:29:56.011Z,10.70
2023-04-17T20:32:27.526Z,6.60
2023-04-17T20:34:58.428Z,6.70
2023-04-17T20:37:29.280Z,7.10
2023-04-17T20:40:00.159Z,7.55
2023-04-17T20:42:33.699Z,5.75
2023-04-17T20:45:04.652Z,9.18
2023-04-17T20:47:37.445Z,9.50
2023-04-17T20:50:09.759Z,9.30
2023-04-17T20:52:40.576Z,12.05
2023-04-17T20:55:12.372Z,11.85
2023-04-17T20:57:45.772Z,12.35
2023-04-17T21:00:17.642Z,11.98
2023-04-17T21:02:48.602Z,12.40
2023-04-17T21:05:19.630Z,11.50
2023-04-17T21:07:51.735Z,9.63
2023-04-17T21:10:22.886Z,8.73
2023-04-17T21:12:56.268Z,10.32
2023-04-17T21:15:27.155Z,14.02
2023-04-17T21:17:58.271Z,18.67
2023-04-17T21:20:29.125Z,17.02
2023-04-17T21:22:59.932Z,16.38
2023-04-17T21:25:30.946Z,18.02
2023-04-17T21:28:04.459Z,17.55
2023-04-17T21:30:35.339Z,11.30
2023-04-17T21:33:07.107Z,20.10
2023-04-17T21:35:39.340Z,22.95
2023-04-17T21:38:10.148Z,21.73
2023-04-17T21:40:50.538Z,20.92
2023-04-17T21:43:24.976Z,22.67
2023-04-17T21:45:57.368Z,12.52
2023-04-17T21:48:28.432Z,27.05
2023-04-17T21:51:04.503Z,20.27
2023-04-17T21:53:36.402Z,24.50
2023-04-17T21:56:07.783Z,24.23
2023-04-17T21:58:41.191Z,22.10
2023-04-17T22:01:12.114Z,26.25
2023-04-17T22:03:42.883Z,25.23
2023-04-17T22:06:13.762Z,23.73
2023-04-17T22:08:44.670Z,28.27
2023-04-17T22:11:15.550Z,25.63
2023-04-17T22:13:49.043Z,23.25
2023-04-17T22:16:19.897Z,28.02
2023-04-17T22:18:50.692Z,31.40
2023-04-17T22:21:21.533Z,28.67
2023-04-17T22:23:52.363Z,29.55
2023-04-17T22:26:24.349Z,28.95
2023-04-17T22:28:57.822Z,29.83
2023-04-17T22:31:28.759Z,28.85
2023-04-17T22:33:59.633Z,30.85
2023-04-17T22:36:30.460Z,28.13
2023-04-17T22:39:01.400Z,28.27
2023-04-17T22:41:32.304Z,30.55
2023-04-17T22:44:06.426Z,31.35
2023-04-17T22:46:37.268Z,31.38
2023-04-17T22:49:08.706Z,28.30
2023-04-17T22:51:39.518Z,29.30
2023-04-17T22:54:21.624Z,31.92
2023-04-17T22:56:54.289Z,26.23
2023-04-17T22:59:28.038Z,29.25
2023-04-17T23:01:59.007Z,31.55
2023-04-17T23:04:29.884Z,26.40
2023-04-17T23:07:00.856Z,29.38
2023-04-17T23:09:31.756Z,30.23
2023-04-17T23:12:02.511Z,29.77
2023-04-17T23:14:35.973Z,29.45
2023-04-17T23:17:06.860Z,30.10
2023-04-17T23:19:37.710Z,29.70
2023-04-17T23:22:09.466Z,28.52
2023-04-17T23:24:40.364Z,29.50
2023-04-17T23:27:11.401Z,27.60
2023-04-17T23:29:44.897Z,30.73
2023-04-17T23:32:15.891Z,31.60
2023-04-17T23:34:46.710Z,28.77
2023-04-17T23:37:17.573Z,29.20
2023-04-17T23:39:48.512Z,31.73
2023-04-17T23:42:19.404Z,31.30
2023-04-17T23:44:52.728Z,32.17
2023-04-17T23:47:23.508Z,31.27
2023-04-17T23:49:54.625Z,30.17
2023-04-17T23:52:25.501Z,30.63
2023-04-17T23:54:56.364Z,31.25
2023-04-17T23:57:27.602Z,31.42
